sensor_id;sensor_type;location;lat;lon;timestamp;pressure;altitude;pressure_sealevel;temperature;humidity
15007;BME280;7599;50.748;13.142;2023-02-28T00:02:41;96593.31;;;17.91;39.00
15007;BME280;7599;50.748;13.142;2023-02-28T00:05:44;96585.03;;;17.87;39.22
15007;BME280;7599;50.748;13.142;2023-02-28T00:08:48;96588.72;;;17.86;39.48
15007;BME280;7599;50.748;13.142;2023-02-28T00:11:50;96591.41;;;17.86;39.02
15007;BME280;7599;50.748;13.142;2023-02-28T00:14:53;96583.97;;;17.88;39.28
15007;BME280;7599;50.748;13.142;2023-02-28T00:17:55;96589.03;;;17.90;38.67
15007;BME280;7599;50.748;13.142;2023-02-28T00:20:57;96587.19;;;17.90;38.99
15007;BME280;7599;50.748;13.142;2023-02-28T00:24:01;96601.00;;;17.87;38.95
15007;BME280;7599;50.748;13.142;2023-02-28T00:27:04;96594.06;;;17.86;38.91
15007;BME280;7599;50.748;13.142;2023-02-28T00:30:10;96588.47;;;17.88;38.93
15007;BME280;7599;50.748;13.142;2023-02-28T00:33:13;96587.19;;;17.90;39.00
15007;BME280;7599;50.748;13.142;2023-02-28T00:36:15;96593.31;;;17.91;38.91
15007;BME280;7599;50.748;13.142;2023-02-28T00:39:19;96587.69;;;17.87;38.75
15007;BME280;7599;50.748;13.142;2023-02-28T00:42:22;96586.06;;;17.86;39.16
15007;BME280;7599;50.748;13.142;2023-02-28T00:45:24;96580.75;;;17.86;39.05
15007;BME280;7599;50.748;13.142;2023-02-28T00:48:27;96586.88;;;17.87;38.99
15007;BME280;7599;50.748;13.142;2023-02-28T00:51:30;96582.91;;;17.89;39.21
15007;BME280;7599;50.748;13.142;2023-02-28T00:54:33;96585.31;;;17.91;39.20
15007;BME280;7599;50.748;13.142;2023-02-28T00:57:36;96581.88;;;17.90;39.11
15007;BME280;7599;50.748;13.142;2023-02-28T01:00:38;96578.66;;;17.88;39.19
15007;BME280;7599;50.748;13.142;2023-02-28T01:03:41;96578.88;;;17.87;39.03
15007;BME280;7599;50.748;13.142;2023-02-28T01:06:43;96577.53;;;17.84;39.01
15007;BME280;7599;50.748;13.142;2023-02-28T01:09:47;96580.75;;;17.86;38.78
15007;BME280;7599;50.748;13.142;2023-02-28T01:12:50;96584.78;;;17.89;38.91
15007;BME280;7599;50.748;13.142;2023-02-28T01:15:54;96572.50;;;17.88;38.86
15007;BME280;7599;50.748;13.142;2023-02-28T01:18:58;96578.66;;;17.88;39.15
15007;BME280;7599;50.748;13.142;2023-02-28T01:22:01;96571.16;;;17.85;39.11
15007;BME280;7599;50.748;13.142;2023-02-28T01:25:06;96571.16;;;17.85;39.02
15007;BME280;7599;50.748;13.142;2023-02-28T01:28:09;96569.06;;;17.87;39.01
15007;BME280;7599;50.748;13.142;2023-02-28T01:31:12;96561.63;;;17.89;39.25
15007;BME280;7599;50.748;13.142;2023-02-28T01:34:14;96571.47;;;17.89;39.03
15007;BME280;7599;50.748;13.142;2023-02-28T01:37:17;96566.38;;;17.87;38.88
15007;BME280;7599;50.748;13.142;2023-02-28T01:40:21;96560.75;;;17.84;38.90
15007;BME280;7599;50.748;13.142;2023-02-28T01:43:26;96561.56;;;17.84;39.24
15007;BME280;7599;50.748;13.142;2023-02-28T01:46:30;96559.69;;;17.85;38.93
15007;BME280;7599;50.748;13.142;2023-02-28T01:49:33;96558.41;;;17.87;39.12
15007;BME280;7599;50.748;13.142;2023-02-28T01:52:35;96561.88;;;17.88;39.12
15007;BME280;7599;50.748;13.142;2023-02-28T01:55:40;96551.47;;;17.86;38.73
15007;BME280;7599;50.748;13.142;2023-02-28T01:58:43;96550.91;;;17.84;38.84
15007;BME280;7599;50.748;13.142;2023-02-28T02:01:45;96550.91;;;17.84;39.00
15007;BME280;7599;50.748;13.142;2023-02-28T02:04:52;96544.53;;;17.85;38.87
15007;BME280;7599;50.748;13.142;2023-02-28T02:07:58;96544.03;;;17.88;39.10
15007;BME280;7599;50.748;13.142;2023-02-28T02:11:07;96543.50;;;17.86;39.11
15007;BME280;7599;50.748;13.142;2023-02-28T02:14:34;96555.19;;;17.85;39.07
15007;BME280;7599;50.748;13.142;2023-02-28T02:17:45;96551.19;;;17.83;39.22
15007;BME280;7599;50.748;13.142;2023-02-28T02:21:16;96540.81;;;17.86;38.78
15007;BME280;7599;50.748;13.142;2023-02-28T02:24:51;96554.69;;;17.88;38.83
15007;BME280;7599;50.748;13.142;2023-02-28T02:28:02;96547.44;;;17.84;38.88
15007;BME280;7599;50.748;13.142;2023-02-28T02:34:51;96541.84;;;17.80;38.90
15007;BME280;7599;50.748;13.142;2023-02-28T02:38:06;96538.13;;;17.81;39.00
15007;BME280;7599;50.748;13.142;2023-02-28T02:41:15;96542.94;;;17.84;38.88
15007;BME280;7599;50.748;13.142;2023-02-28T02:44:22;96538.16;;;17.86;38.99
15007;BME280;7599;50.748;13.142;2023-02-28T02:47:28;96546.16;;;17.86;39.00
15007;BME280;7599;50.748;13.142;2023-02-28T02:50:36;96542.94;;;17.84;38.94
15007;BME280;7599;50.748;13.142;2023-02-28T02:53:42;96543.22;;;17.83;38.98
15007;BME280;7599;50.748;13.142;2023-02-28T02:56:48;96542.41;;;17.82;39.00
15007;BME280;7599;50.748;13.142;2023-02-28T02:59:53;96542.66;;;17.81;39.24
15007;BME280;7599;50.748;13.142;2023-02-28T03:02:59;96548.78;;;17.81;38.79
15007;BME280;7599;50.748;13.142;2023-02-28T03:06:04;96550.38;;;17.82;38.53
15007;BME280;7599;50.748;13.142;2023-02-28T03:09:07;96550.34;;;17.77;38.59
15007;BME280;7599;50.748;13.142;2023-02-28T03:12:11;96550.81;;;17.74;39.12
15007;BME280;7599;50.748;13.142;2023-02-28T03:15:19;96550.81;;;17.69;38.86
15007;BME280;7599;50.748;13.142;2023-02-28T03:18:32;96545.16;;;17.65;38.99
15007;BME280;7599;50.748;13.142;2023-02-28T03:21:45;96550.44;;;17.60;38.80
15007;BME280;7599;50.748;13.142;2023-02-28T03:24:57;96541.59;;;17.55;38.99
15007;BME280;7599;50.748;13.142;2023-02-28T03:28:09;96535.44;;;17.49;39.00
15007;BME280;7599;50.748;13.142;2023-02-28T03:31:19;96534.31;;;17.45;39.26
15007;BME280;7599;50.748;13.142;2023-02-28T03:34:26;96536.91;;;17.40;39.14
15007;BME280;7599;50.748;13.142;2023-02-28T03:37:35;96538.72;;;17.34;39.05
15007;BME280;7599;50.748;13.142;2023-02-28T03:40:42;96537.84;;;17.29;39.49
15007;BME280;7599;50.748;13.142;2023-02-28T03:43:50;96545.84;;;17.29;39.63
15007;BME280;7599;50.748;13.142;2023-02-28T03:46:58;96545.19;;;17.43;39.25
15007;BME280;7599;50.748;13.142;2023-02-28T03:50:06;96545.53;;;17.52;39.17
15007;BME280;7599;50.748;13.142;2023-02-28T03:53:15;96543.75;;;17.58;39.34
15007;BME280;7599;50.748;13.142;2023-02-28T03:56:20;96543.75;;;17.58;39.14
15007;BME280;7599;50.748;13.142;2023-02-28T03:59:28;96539.50;;;17.62;39.02
15007;BME280;7599;50.748;13.142;2023-02-28T04:02:30;96544.63;;;17.63;38.95
15007;BME280;7599;50.748;13.142;2023-02-28T04:05:45;96552.41;;;17.70;39.02
15007;BME280;7599;50.748;13.142;2023-02-28T04:08:50;96546.31;;;17.74;38.94
15007;BME280;7599;50.748;13.142;2023-02-28T04:11:54;96540.81;;;17.86;38.61
15007;BME280;7599;50.748;13.142;2023-02-28T04:14:57;96550.75;;;17.96;39.07
15007;BME280;7599;50.748;13.142;2023-02-28T04:18:00;96553.78;;;18.09;38.78
15007;BME280;7599;50.748;13.142;2023-02-28T04:21:02;96548.03;;;18.23;38.46
15007;BME280;7599;50.748;13.142;2023-02-28T04:24:07;96546.78;;;18.35;38.27
15007;BME280;7599;50.748;13.142;2023-02-28T04:27:10;96555.66;;;18.51;37.98
15007;BME280;7599;50.748;13.142;2023-02-28T04:30:12;96555.78;;;18.66;38.01
15007;BME280;7599;50.748;13.142;2023-02-28T04:33:15;96558.75;;;18.75;37.91
15007;BME280;7599;50.748;13.142;2023-02-28T04:36:17;96559.63;;;18.85;37.74
15007;BME280;7599;50.748;13.142;2023-02-28T04:39:22;96556.97;;;18.91;37.54
15007;BME280;7599;50.748;13.142;2023-02-28T04:42:24;96561.00;;;18.93;37.47
15007;BME280;7599;50.748;13.142;2023-02-28T04:45:27;96565.03;;;18.96;37.61
15007;BME280;7599;50.748;13.142;2023-02-28T04:48:33;96569.53;;;18.95;37.85
15007;BME280;7599;50.748;13.142;2023-02-28T04:51:36;96564.97;;;18.91;37.60
15007;BME280;7599;50.748;13.142;2023-02-28T04:54:40;96572.44;;;18.89;37.50
15007;BME280;7599;50.748;13.142;2023-02-28T04:57:42;96567.63;;;18.85;37.87
15007;BME280;7599;50.748;13.142;2023-02-28T05:00:44;96571.31;;;18.79;37.95
15007;BME280;7599;50.748;13.142;2023-02-28T05:03:47;96571.03;;;18.76;37.88
15007;BME280;7599;50.748;13.142;2023-02-28T05:06:50;96565.41;;;18.67;37.77
15007;BME280;7599;50.748;13.142;2023-02-28T05:09:53;96574.16;;;18.63;37.95
15007;BME280;7599;50.748;13.142;2023-02-28T05:12:56;96572.50;;;18.57;37.72
15007;BME280;7599;50.748;13.142;2023-02-28T05:15:58;96579.66;;;18.51;38.04
15007;BME280;7599;50.748;13.142;2023-02-28T05:19:01;96579.06;;;18.44;38.18
15007;BME280;7599;50.748;13.142;2023-02-28T05:22:04;96580.91;;;18.38;38.10
15007;BME280;7599;50.748;13.142;2023-02-28T05:25:08;96583.78;;;18.32;37.81
15007;BME280;7599;50.748;13.142;2023-02-28T05:28:13;96584.25;;;18.24;38.24
15007;BME280;7599;50.748;13.142;2023-02-28T05:31:16;96586.88;;;18.19;38.18
15007;BME280;7599;50.748;13.142;2023-02-28T05:34:18;96590.00;;;18.10;38.54
15007;BME280;7599;50.748;13.142;2023-02-28T05:37:21;96587.31;;;18.05;38.53
15007;BME280;7599;50.748;13.142;2023-02-28T05:40:25;96588.31;;;17.99;38.62
15007;BME280;7599;50.748;13.142;2023-02-28T05:43:27;96586.41;;;17.95;38.69
15007;BME280;7599;50.748;13.142;2023-02-28T05:46:29;96593.34;;;17.96;39.00
15007;BME280;7599;50.748;13.142;2023-02-28T05:49:32;96590.69;;;17.96;38.95
15007;BME280;7599;50.748;13.142;2023-02-28T05:52:34;96592.03;;;17.98;38.85
15007;BME280;7599;50.748;13.142;2023-02-28T05:55:38;96595.81;;;18.02;38.81
15007;BME280;7599;50.748;13.142;2023-02-28T05:58:42;96600.09;;;18.03;38.75
15007;BME280;7599;50.748;13.142;2023-02-28T06:01:45;96597.97;;;18.05;38.46
15007;BME280;7599;50.748;13.142;2023-02-28T06:04:49;96594.78;;;18.08;38.27
15007;BME280;7599;50.748;13.142;2023-02-28T06:07:51;96593.47;;;18.11;38.23
15007;BME280;7599;50.748;13.142;2023-02-28T06:10:55;96595.34;;;18.10;38.13
15007;BME280;7599;50.748;13.142;2023-02-28T06:13:58;96607.84;;;18.10;38.42
15007;BME280;7599;50.748;13.142;2023-02-28T06:17:03;96608.34;;;18.07;38.35
15007;BME280;7599;50.748;13.142;2023-02-28T06:20:07;96616.34;;;18.07;38.46
15007;BME280;7599;50.748;13.142;2023-02-28T06:23:09;96613.66;;;18.02;38.56
15007;BME280;7599;50.748;13.142;2023-02-28T06:26:13;96621.06;;;18.00;38.33
15007;BME280;7599;50.748;13.142;2023-02-28T06:29:16;96626.09;;;17.96;38.80
15007;BME280;7599;50.748;13.142;2023-02-28T06:32:19;96618.06;;;17.91;38.13
15007;BME280;7599;50.748;13.142;2023-02-28T06:35:22;96622.03;;;17.89;38.51
15007;BME280;7599;50.748;13.142;2023-02-28T06:38:24;96632.38;;;17.85;38.48
15007;BME280;7599;50.748;13.142;2023-02-28T06:41:28;96636.59;;;17.81;38.56
15007;BME280;7599;50.748;13.142;2023-02-28T06:44:41;96636.53;;;17.76;38.58
15007;BME280;7599;50.748;13.142;2023-02-28T06:47:46;96634.13;;;17.74;38.43
15007;BME280;7599;50.748;13.142;2023-02-28T06:51:01;96643.97;;;17.74;38.35
15007;BME280;7599;50.748;13.142;2023-02-28T06:54:04;96649.28;;;17.74;38.63
15007;BME280;7599;50.748;13.142;2023-02-28T06:57:11;96659.69;;;17.75;38.64
15007;BME280;7599;50.748;13.142;2023-02-28T07:00:14;96659.44;;;17.77;38.50
15007;BME280;7599;50.748;13.142;2023-02-28T07:03:17;96658.94;;;17.80;38.88
15007;BME280;7599;50.748;13.142;2023-02-28T07:06:20;96669.38;;;17.87;38.51
15007;BME280;7599;50.748;13.142;2023-02-28T07:09:23;96669.69;;;17.90;38.48
15007;BME280;7599;50.748;13.142;2023-02-28T07:12:32;96664.41;;;17.95;38.17
15007;BME280;7599;50.748;13.142;2023-02-28T07:15:35;96657.88;;;18.08;38.39
15007;BME280;7599;50.748;13.142;2023-02-28T07:18:41;96664.06;;;18.13;38.48
15007;BME280;7599;50.748;13.142;2023-02-28T07:21:43;96669.44;;;18.19;38.04
15007;BME280;7599;50.748;13.142;2023-02-28T07:24:46;96664.16;;;18.24;38.10
15007;BME280;7599;50.748;13.142;2023-02-28T07:27:50;96665.00;;;18.29;38.25
15007;BME280;7599;50.748;13.142;2023-02-28T07:30:52;96676.00;;;18.38;37.45
15007;BME280;7599;50.748;13.142;2023-02-28T07:33:55;96668.38;;;18.51;37.23
15007;BME280;7599;50.748;13.142;2023-02-28T07:36:57;96670.94;;;18.68;37.36
15007;BME280;7599;50.748;13.142;2023-02-28T07:40:00;96664.13;;;18.88;36.80
15007;BME280;7599;50.748;13.142;2023-02-28T07:43:04;96671.19;;;19.04;36.43
15007;BME280;7599;50.748;13.142;2023-02-28T07:46:08;96667.25;;;19.21;35.85
15007;BME280;7599;50.748;13.142;2023-02-28T07:49:11;96671.53;;;19.80;34.98
15007;BME280;7599;50.748;13.142;2023-02-28T07:52:14;96671.91;;;20.75;33.12
15007;BME280;7599;50.748;13.142;2023-02-28T07:55:16;96668.53;;;21.54;31.83
15007;BME280;7599;50.748;13.142;2023-02-28T07:58:20;96670.63;;;22.16;30.58
15007;BME280;7599;50.748;13.142;2023-02-28T08:01:22;96670.25;;;22.67;29.68
15007;BME280;7599;50.748;13.142;2023-02-28T08:04:26;96668.34;;;23.25;28.88
15007;BME280;7599;50.748;13.142;2023-02-28T08:07:28;96672.13;;;23.72;27.97
15007;BME280;7599;50.748;13.142;2023-02-28T08:10:31;96671.13;;;24.05;27.54
15007;BME280;7599;50.748;13.142;2023-02-28T08:13:35;96675.22;;;24.40;27.07
15007;BME280;7599;50.748;13.142;2023-02-28T08:16:37;96681.41;;;24.73;26.52
15007;BME280;7599;50.748;13.142;2023-02-28T08:19:40;96671.78;;;25.05;26.00
15007;BME280;7599;50.748;13.142;2023-02-28T08:22:42;96674.25;;;25.28;25.67
15007;BME280;7599;50.748;13.142;2023-02-28T08:25:52;96678.66;;;25.52;25.07
15007;BME280;7599;50.748;13.142;2023-02-28T08:28:56;96680.09;;;25.77;25.06
15007;BME280;7599;50.748;13.142;2023-02-28T08:32:01;96679.34;;;25.98;24.58
15007;BME280;7599;50.748;13.142;2023-02-28T08:35:04;96675.59;;;26.22;24.39
15007;BME280;7599;50.748;13.142;2023-02-28T08:38:07;96677.78;;;26.33;24.11
15007;BME280;7599;50.748;13.142;2023-02-28T08:41:10;96677.03;;;26.64;23.96
15007;BME280;7599;50.748;13.142;2023-02-28T08:44:15;96680.78;;;26.54;24.05
15007;BME280;7599;50.748;13.142;2023-02-28T08:47:17;96680.78;;;26.54;23.88
15007;BME280;7599;50.748;13.142;2023-02-28T08:50:20;96683.38;;;26.59;23.73
15007;BME280;7599;50.748;13.142;2023-02-28T08:53:23;96685.38;;;26.54;23.91
15007;BME280;7599;50.748;13.142;2023-02-28T08:56:26;96689.38;;;26.34;24.27
15007;BME280;7599;50.748;13.142;2023-02-28T08:59:31;96688.16;;;26.26;24.13
15007;BME280;7599;50.748;13.142;2023-02-28T09:02:34;96688.97;;;26.41;24.03
15007;BME280;7599;50.748;13.142;2023-02-28T09:05:37;96681.47;;;26.60;23.73
15007;BME280;7599;50.748;13.142;2023-02-28T09:08:40;96679.25;;;26.84;23.55
15007;BME280;7599;50.748;13.142;2023-02-28T09:11:42;96679.88;;;27.03;23.30
15007;BME280;7599;50.748;13.142;2023-02-28T09:14:46;96683.88;;;27.06;23.16
15007;BME280;7599;50.748;13.142;2023-02-28T09:17:48;96674.13;;;26.96;23.12
15007;BME280;7599;50.748;13.142;2023-02-28T09:20:51;96682.44;;;25.51;25.14
15007;BME280;7599;50.748;13.142;2023-02-28T09:23:54;96675.47;;;23.82;27.56
15007;BME280;7599;50.748;13.142;2023-02-28T09:26:57;96681.72;;;22.77;29.14
15007;BME280;7599;50.748;13.142;2023-02-28T09:30:09;96686.53;;;21.97;30.43
15007;BME280;7599;50.748;13.142;2023-02-28T09:33:11;96686.22;;;21.45;31.43
15007;BME280;7599;50.748;13.142;2023-02-28T09:36:14;96684.44;;;21.10;32.07
15007;BME280;7599;50.748;13.142;2023-02-28T09:39:17;96683.94;;;20.87;32.55
15007;BME280;7599;50.748;13.142;2023-02-28T09:42:23;96681.81;;;20.64;32.83
15007;BME280;7599;50.748;13.142;2023-02-28T09:45:32;96682.06;;;20.57;33.14
15007;BME280;7599;50.748;13.142;2023-02-28T09:48:41;96679.66;;;20.36;33.56
15007;BME280;7599;50.748;13.142;2023-02-28T09:51:49;96685.78;;;20.26;33.57
15007;BME280;7599;50.748;13.142;2023-02-28T09:54:53;96680.41;;;20.16;33.79
15007;BME280;7599;50.748;13.142;2023-02-28T09:57:56;96682.81;;;20.07;34.15
15007;BME280;7599;50.748;13.142;2023-02-28T10:01:07;96679.84;;;19.99;34.20
15007;BME280;7599;50.748;13.142;2023-02-28T10:04:16;96680.63;;;19.89;34.25
15007;BME280;7599;50.748;13.142;2023-02-28T10:07:40;96681.16;;;19.86;34.41
15007;BME280;7599;50.748;13.142;2023-02-28T10:10:50;96680.63;;;19.89;34.47
15007;BME280;7599;50.748;13.142;2023-02-28T10:14:01;96685.16;;;19.88;35.12
15007;BME280;7599;50.748;13.142;2023-02-28T10:17:11;96681.13;;;19.81;35.14
15007;BME280;7599;50.748;13.142;2023-02-28T10:20:19;96677.16;;;19.83;35.25
15007;BME280;7599;50.748;13.142;2023-02-28T10:23:25;96677.94;;;19.79;35.19
15007;BME280;7599;50.748;13.142;2023-02-28T10:26:30;96680.59;;;19.74;35.28
15007;BME280;7599;50.748;13.142;2023-02-28T10:29:33;96679.25;;;19.71;35.33
15007;BME280;7599;50.748;13.142;2023-02-28T10:32:38;96674.69;;;19.67;35.36
15007;BME280;7599;50.748;13.142;2023-02-28T10:35:41;96674.69;;;19.62;35.41
15007;BME280;7599;50.748;13.142;2023-02-28T10:38:45;96672.53;;;19.58;35.46
15007;BME280;7599;50.748;13.142;2023-02-28T10:41:48;96669.31;;;19.56;35.31
15007;BME280;7599;50.748;13.142;2023-02-28T10:45:05;96672.78;;;19.52;35.68
15007;BME280;7599;50.748;13.142;2023-02-28T10:48:29;96675.16;;;19.48;35.52
15007;BME280;7599;50.748;13.142;2023-02-28T10:51:36;96663.66;;;19.48;35.63
15007;BME280;7599;50.748;13.142;2023-02-28T10:54:39;96669.50;;;19.45;35.56
15007;BME280;7599;50.748;13.142;2023-02-28T10:57:42;96672.16;;;19.45;35.76
15007;BME280;7599;50.748;13.142;2023-02-28T11:00:45;96666.53;;;19.41;35.84
15007;BME280;7599;50.748;13.142;2023-02-28T11:03:53;96666.28;;;19.43;35.82
15007;BME280;7599;50.748;13.142;2023-02-28T11:07:21;96664.41;;;19.43;35.75
15007;BME280;7599;50.748;13.142;2023-02-28T11:13:55;96655.09;;;19.41;35.74
15007;BME280;7599;50.748;13.142;2023-02-28T11:17:32;96654.00;;;19.42;36.00
15007;BME280;7599;50.748;13.142;2023-02-28T11:20:38;96655.34;;;19.44;35.87
15007;BME280;7599;50.748;13.142;2023-02-28T11:23:41;96651.88;;;19.44;35.82
15007;BME280;7599;50.748;13.142;2023-02-28T11:26:47;96649.47;;;19.42;35.87
15007;BME280;7599;50.748;13.142;2023-02-28T11:29:50;96646.53;;;19.44;35.96
15007;BME280;7599;50.748;13.142;2023-02-28T11:32:53;96644.69;;;19.44;35.75
15007;BME280;7599;50.748;13.142;2023-02-28T11:36:20;96643.34;;;19.42;35.88
15007;BME280;7599;50.748;13.142;2023-02-28T11:39:27;96642.53;;;19.41;35.70
15007;BME280;7599;50.748;13.142;2023-02-28T11:42:39;96644.16;;;19.47;35.56
15007;BME280;7599;50.748;13.142;2023-02-28T11:45:59;96635.69;;;19.55;36.52
15007;BME280;7599;50.748;13.142;2023-02-28T11:49:22;96638.63;;;19.59;36.46
15007;BME280;7599;50.748;13.142;2023-02-28T11:52:41;96633.00;;;19.55;36.80
15007;BME280;7599;50.748;13.142;2023-02-28T11:55:48;96633.56;;;19.52;36.94
15007;BME280;7599;50.748;13.142;2023-02-28T11:59:03;96634.56;;;19.46;36.47
15007;BME280;7599;50.748;13.142;2023-02-28T12:02:20;96638.53;;;19.44;36.58
15007;BME280;7599;50.748;13.142;2023-02-28T12:05:29;96630.00;;;19.42;36.45
15007;BME280;7599;50.748;13.142;2023-02-28T12:08:44;96627.06;;;19.38;36.81
15007;BME280;7599;50.748;13.142;2023-02-28T12:11:53;96634.81;;;19.40;36.68
15007;BME280;7599;50.748;13.142;2023-02-28T12:15:12;96634.00;;;19.39;36.47
15007;BME280;7599;50.748;13.142;2023-02-28T12:18:38;96632.91;;;19.35;36.24
15007;BME280;7599;50.748;13.142;2023-02-28T12:21:55;96634.22;;;19.33;36.77
15007;BME280;7599;50.748;13.142;2023-02-28T12:25:22;96631.56;;;19.28;36.46
15007;BME280;7599;50.748;13.142;2023-02-28T12:28:31;96634.22;;;19.28;36.37
15007;BME280;7599;50.748;13.142;2023-02-28T12:31:36;96632.38;;;19.28;36.48
15007;BME280;7599;50.748;13.142;2023-02-28T12:34:42;96628.31;;;19.20;36.45
15007;BME280;7599;50.748;13.142;2023-02-28T12:37:50;96625.91;;;19.19;36.56
15007;BME280;7599;50.748;13.142;2023-02-28T12:40:58;96625.84;;;19.04;37.08
15007;BME280;7599;50.748;13.142;2023-02-28T12:44:06;96618.09;;;19.02;37.15
15007;BME280;7599;50.748;13.142;2023-02-28T12:47:14;96622.63;;;19.02;37.08
15007;BME280;7599;50.748;13.142;2023-02-28T12:50:18;96617.53;;;18.95;37.12
15007;BME280;7599;50.748;13.142;2023-02-28T12:53:25;96618.06;;;18.92;36.93
15007;BME280;7599;50.748;13.142;2023-02-28T12:56:35;96617.75;;;18.89;37.23
15007;BME280;7599;50.748;13.142;2023-02-28T12:59:43;96608.13;;;18.82;37.12
15007;BME280;7599;50.748;13.142;2023-02-28T13:02:52;96609.75;;;18.83;37.32
15007;BME280;7599;50.748;13.142;2023-02-28T13:06:10;96618.19;;;18.75;36.81
15007;BME280;7599;50.748;13.142;2023-02-28T13:09:17;96618.19;;;18.70;37.05
15007;BME280;7599;50.748;13.142;2023-02-28T13:12:22;96611.50;;;18.68;37.05
15007;BME280;7599;50.748;13.142;2023-02-28T13:15:26;96614.13;;;18.63;37.50
15007;BME280;7599;50.748;13.142;2023-02-28T13:18:32;96609.06;;;18.61;37.29
15007;BME280;7599;50.748;13.142;2023-02-28T13:21:43;96611.66;;;18.56;37.24
15007;BME280;7599;50.748;13.142;2023-02-28T13:24:47;96602.88;;;18.56;37.44
15007;BME280;7599;50.748;13.142;2023-02-28T13:27:53;96615.72;;;18.59;37.54
15007;BME280;7599;50.748;13.142;2023-02-28T13:31:05;96619.25;;;18.69;37.38
15007;BME280;7599;50.748;13.142;2023-02-28T13:34:14;96612.38;;;18.78;37.72
15007;BME280;7599;50.748;13.142;2023-02-28T13:37:34;96613.47;;;18.88;37.41
15007;BME280;7599;50.748;13.142;2023-02-28T13:40:37;96625.25;;;18.97;37.32
15007;BME280;7599;50.748;13.142;2023-02-28T13:44:00;96615.97;;;19.04;36.82
15007;BME280;7599;50.748;13.142;2023-02-28T13:47:31;96619.50;;;19.15;37.02
15007;BME280;7599;50.748;13.142;2023-02-28T13:50:36;96615.25;;;19.24;36.96
15007;BME280;7599;50.748;13.142;2023-02-28T13:53:51;96613.69;;;19.33;37.13
15007;BME280;7599;50.748;13.142;2023-02-28T13:57:12;96608.66;;;19.42;36.55
15007;BME280;7599;50.748;13.142;2023-02-28T14:00:24;96606.06;;;19.52;36.70
15007;BME280;7599;50.748;13.142;2023-02-28T14:03:38;96612.28;;;19.83;36.92
15007;BME280;7599;50.748;13.142;2023-02-28T14:06:47;96609.59;;;19.98;36.71
15007;BME280;7599;50.748;13.142;2023-02-28T14:09:57;96598.41;;;20.11;36.63
15007;BME280;7599;50.748;13.142;2023-02-28T14:13:10;96603.22;;;20.24;36.27
15007;BME280;7599;50.748;13.142;2023-02-28T14:16:17;96595.22;;;20.29;36.50
15007;BME280;7599;50.748;13.142;2023-02-28T14:19:24;96597.88;;;20.35;36.36
15007;BME280;7599;50.748;13.142;2023-02-28T14:22:49;96597.38;;;20.38;36.33
15007;BME280;7599;50.748;13.142;2023-02-28T14:26:01;96587.47;;;20.38;36.29
15007;BME280;7599;50.748;13.142;2023-02-28T14:29:22;96595.50;;;20.38;36.06
15007;BME280;7599;50.748;13.142;2023-02-28T14:32:37;96597.88;;;20.35;36.23
15007;BME280;7599;50.748;13.142;2023-02-28T14:35:52;96598.38;;;20.31;36.20
15007;BME280;7599;50.748;13.142;2023-02-28T14:39:03;96596.81;;;20.25;36.18
15007;BME280;7599;50.748;13.142;2023-02-28T14:42:27;96593.34;;;20.20;36.29
15007;BME280;7599;50.748;13.142;2023-02-28T14:45:31;96586.66;;;20.12;36.16
15007;BME280;7599;50.748;13.142;2023-02-28T14:48:35;96586.66;;;20.07;36.27
15007;BME280;7599;50.748;13.142;2023-02-28T14:51:40;96589.84;;;19.99;36.55
15007;BME280;7599;50.748;13.142;2023-02-28T14:54:43;96579.19;;;19.94;36.64
15007;BME280;7599;50.748;13.142;2023-02-28T14:57:51;96592.75;;;19.87;36.79
15007;BME280;7599;50.748;13.142;2023-02-28T15:00:56;96582.34;;;19.81;36.78
15007;BME280;7599;50.748;13.142;2023-02-28T15:04:02;96583.94;;;19.72;36.80
15007;BME280;7599;50.748;13.142;2023-02-28T15:07:10;96580.72;;;19.65;37.13
15007;BME280;7599;50.748;13.142;2023-02-28T15:10:18;96572.16;;;19.57;37.05
15007;BME280;7599;50.748;13.142;2023-02-28T15:13:22;96581.75;;;19.53;37.23
15007;BME280;7599;50.748;13.142;2023-02-28T15:16:29;96575.84;;;19.46;37.38
15007;BME280;7599;50.748;13.142;2023-02-28T15:19:39;96575.31;;;19.39;37.45
15007;BME280;7599;50.748;13.142;2023-02-28T15:22:45;96573.13;;;19.31;37.53
15007;BME280;7599;50.748;13.142;2023-02-28T15:25:50;96577.94;;;19.29;37.55
15007;BME280;7599;50.748;13.142;2023-02-28T15:28:58;96582.72;;;19.22;37.65
15007;BME280;7599;50.748;13.142;2023-02-28T15:32:03;96578.97;;;19.18;37.47
15007;BME280;7599;50.748;13.142;2023-02-28T15:35:30;96580.00;;;19.12;37.60
15007;BME280;7599;50.748;13.142;2023-02-28T15:38:34;96586.41;;;19.06;37.73
15007;BME280;7599;50.748;13.142;2023-02-28T15:41:37;96587.41;;;19.00;37.86
15007;BME280;7599;50.748;13.142;2023-02-28T15:44:40;96577.25;;;18.97;38.19
15007;BME280;7599;50.748;13.142;2023-02-28T15:47:45;96587.38;;;18.90;38.13
15007;BME280;7599;50.748;13.142;2023-02-28T15:50:51;96589.50;;;18.88;38.04
15007;BME280;7599;50.748;13.142;2023-02-28T15:53:57;96587.56;;;18.78;38.30
15007;BME280;7599;50.748;13.142;2023-02-28T15:57:04;96589.13;;;18.74;38.62
15007;BME280;7599;50.748;13.142;2023-02-28T16:00:11;96593.41;;;18.70;38.49
15007;BME280;7599;50.748;13.142;2023-02-28T16:03:32;96594.75;;;18.40;37.77
15007;BME280;7599;50.748;13.142;2023-02-28T16:06:40;96596.63;;;18.40;38.49
15007;BME280;7599;50.748;13.142;2023-02-28T16:09:43;96601.41;;;18.38;38.28
15007;BME280;7599;50.748;13.142;2023-02-28T16:12:46;96591.81;;;18.37;38.48
15007;BME280;7599;50.748;13.142;2023-02-28T16:15:48;96597.16;;;18.37;38.28
15007;BME280;7599;50.748;13.142;2023-02-28T16:18:53;96606.19;;;18.36;38.32
15007;BME280;7599;50.748;13.142;2023-02-28T16:21:57;96604.84;;;18.33;38.18
15007;BME280;7599;50.748;13.142;2023-02-28T16:24:59;96605.34;;;18.30;38.28
15007;BME280;7599;50.748;13.142;2023-02-28T16:28:08;96603.47;;;18.26;38.65
15007;BME280;7599;50.748;13.142;2023-02-28T16:31:14;96603.97;;;18.23;38.71
15007;BME280;7599;50.748;13.142;2023-02-28T16:34:17;96605.25;;;18.20;38.61
15007;BME280;7599;50.748;13.142;2023-02-28T16:37:22;96605.50;;;18.13;38.77